Погода Матиас Олимпиона 2 недели

Пиауи, Бразилия

23 июля-05 августа
  • 23июля
    Сегодня
    +22°
    +34°
    Ясно и безоблачно
    ВремяПогодаТемператураВлажностьДавлениеВетер, м/сВероятность осадков
    00:00Ясно и безоблачно+24°C85 %758 мм1.3 м/с5 %
    03:00Ясно и безоблачно+23°C92 %757 мм0.4 м/с5 %
    06:00Ясно и безоблачно+22°C90 %757 мм1.8 м/с5 %
    09:00Ясно и безоблачно+29°C49 %759 мм4.8 м/с5 %
    12:00Ясно и безоблачно+31°C43 %758 мм3.8 м/с5 %
    15:00Ясно и безоблачно+33°C35 %756 мм2.5 м/с5 %
    18:00Практически безоблачно+31°C58 %756 мм1.0 м/с5 %
    21:00Облачно с прояснениями+28°C65 %758 мм4.2 м/с5 %
  • 24июля
    Среда
    +22°
    +33°
    Небольшая облачность
    ВремяПогодаТемператураВлажностьДавлениеВетер, м/сВероятность осадков
    00:00Ясно и безоблачно+25°C84 %758 мм2.0 м/с5 %
    03:00Ясно и безоблачно+23°C94 %757 мм1.7 м/с2 %
    06:00Ясно и безоблачно+22°C98 %758 мм1.3 м/с4 %
    09:00Ясно и безоблачно+28°C59 %759 мм2.7 м/с5 %
    12:00Ясно и безоблачно+31°C45 %758 мм3.8 м/с5 %
    15:00Небольшая облачность+33°C37 %756 мм3.2 м/с5 %
    18:00Практически безоблачно+30°C57 %757 мм1.5 м/с5 %
    21:00Облачно с прояснениями+28°C63 %758 мм1.8 м/с2 %
  • 25июля
    Четверг
    +20°
    +32°
    Ясно и безоблачно
    ВремяПогодаТемператураВлажностьДавлениеВетер, м/сВероятность осадков
    00:00Облачно с прояснениями+24°C80 %759 мм1.4 м/с4 %
    03:00Практически безоблачно+24°C87 %757 мм0.6 м/с5 %
    06:00Ясно и безоблачно+23°C70 %758 мм3.0 м/с3 %
    09:00Ясно и безоблачно+28°C48 %759 мм4.7 м/с4 %
    12:00Ясно и безоблачно+31°C34 %758 мм4.8 м/с5 %
    15:00Ясно и безоблачно+31°C31 %756 мм3.9 м/с5 %
    18:00Ясно и безоблачно+30°C41 %756 мм0.6 м/с5 %
    21:00Ясно и безоблачно+27°C55 %757 мм1.5 м/с5 %
  • 26июля
    Пятница
    +22°
    +33°
    Практически безоблачно
    ВремяПогодаТемператураВлажностьДавлениеВетер, м/сВероятность осадков
    00:00Ясно и безоблачно+23°C80 %757 мм1.7 м/с5 %
    03:00Ясно и безоблачно+22°C92 %756 мм1.6 м/с5 %
    06:00Ясно и безоблачно+21°C94 %757 мм1.6 м/с5 %
    09:00Ясно и безоблачно+28°C58 %758 мм3.5 м/с3 %
    12:00Практически безоблачно+31°C43 %757 мм4.3 м/с5 %
    15:00Практически безоблачно+32°C36 %755 мм2.6 м/с5 %
    18:00Ясно и безоблачно+31°C52 %755 мм0.8 м/с5 %
    21:00Небольшая облачность+29°C59 %757 мм3.7 м/с5 %
  • 27июля
    Суббота
    +24°
    +35°
    Практически безоблачно
    ВремяПогодаТемператураВлажностьДавлениеВетер, м/сВероятность осадков
    00:00Пасмурно, сплошная облачность+26°C78 %757 мм3.0 м/с5 %
    03:00Ясно и безоблачно+24°C82 %756 мм2.5 м/с5 %
    06:00Ясно и безоблачно+23°C82 %757 мм2.2 м/с5 %
    09:00Ясно и безоблачно+28°C60 %759 мм2.8 м/с3 %
    12:00Ясно и безоблачно+32°C45 %757 мм3.2 м/с5 %
    15:00Практически безоблачно+34°C35 %755 мм2.4 м/с5 %
    18:00Практически безоблачно+31°C47 %756 мм2.7 м/с5 %
    21:00Ясно и безоблачно+28°C75 %758 мм3.7 м/с8 %
Мы используем cookies
Соглашаюсь